sensor_id;sensor_type;location;lat;lon;timestamp;P1;durP1;ratioP1;P2;durP2;ratioP2
46675;SDS011;32412;51.478;5.694;2023-05-10T00:01:21;23.93;;;10.80;;
46675;SDS011;32412;51.478;5.694;2023-05-10T00:03:47;24.08;;;11.57;;
46675;SDS011;32412;51.478;5.694;2023-05-10T00:06:13;23.88;;;10.93;;
46675;SDS011;32412;51.478;5.694;2023-05-10T00:08:39;22.25;;;11.30;;
46675;SDS011;32412;51.478;5.694;2023-05-10T00:11:08;21.40;;;11.07;;
46675;SDS011;32412;51.478;5.694;2023-05-10T00:13:33;21.92;;;11.75;;
46675;SDS011;32412;51.478;5.694;2023-05-10T00:16:04;24.67;;;12.13;;
46675;SDS011;32412;51.478;5.694;2023-05-10T00:18:33;25.70;;;12.88;;
46675;SDS011;32412;51.478;5.694;2023-05-10T00:21:05;27.80;;;11.93;;
46675;SDS011;32412;51.478;5.694;2023-05-10T00:23:31;29.55;;;13.77;;
46675;SDS011;32412;51.478;5.694;2023-05-10T00:26:02;32.90;;;14.10;;
46675;SDS011;32412;51.478;5.694;2023-05-10T00:28:30;29.50;;;13.82;;
46675;SDS011;32412;51.478;5.694;2023-05-10T00:30:58;29.38;;;13.27;;
46675;SDS011;32412;51.478;5.694;2023-05-10T00:33:24;36.28;;;14.30;;
46675;SDS011;32412;51.478;5.694;2023-05-10T00:35:50;35.95;;;15.00;;
46675;SDS011;32412;51.478;5.694;2023-05-10T00:38:15;33.35;;;14.68;;
46675;SDS011;32412;51.478;5.694;2023-05-10T00:40:41;36.38;;;15.30;;
46675;SDS011;32412;51.478;5.694;2023-05-10T00:43:07;36.97;;;15.48;;
46675;SDS011;32412;51.478;5.694;2023-05-10T00:45:33;39.08;;;16.77;;
46675;SDS011;32412;51.478;5.694;2023-05-10T00:48:01;32.65;;;15.30;;
46675;SDS011;32412;51.478;5.694;2023-05-10T00:50:28;34.67;;;15.05;;
46675;SDS011;32412;51.478;5.694;2023-05-10T00:52:56;31.65;;;15.38;;
46675;SDS011;32412;51.478;5.694;2023-05-10T00:55:23;34.58;;;15.55;;
46675;SDS011;32412;51.478;5.694;2023-05-10T00:57:49;39.28;;;15.68;;
46675;SDS011;32412;51.478;5.694;2023-05-10T01:00:15;39.40;;;15.90;;
46675;SDS011;32412;51.478;5.694;2023-05-10T01:02:44;41.40;;;16.65;;
46675;SDS011;32412;51.478;5.694;2023-05-10T01:05:11;39.78;;;16.73;;
46675;SDS011;32412;51.478;5.694;2023-05-10T01:07:37;41.22;;;16.77;;
46675;SDS011;32412;51.478;5.694;2023-05-10T01:10:02;45.38;;;17.75;;
46675;SDS011;32412;51.478;5.694;2023-05-10T01:12:29;44.47;;;18.38;;
46675;SDS011;32412;51.478;5.694;2023-05-10T01:14:55;56.58;;;19.50;;
46675;SDS011;32412;51.478;5.694;2023-05-10T01:17:22;48.17;;;19.60;;
46675;SDS011;32412;51.478;5.694;2023-05-10T01:19:48;53.13;;;21.00;;
46675;SDS011;32412;51.478;5.694;2023-05-10T01:27:37;67.00;;;22.60;;
46675;SDS011;32412;51.478;5.694;2023-05-10T01:33:09;58.58;;;22.63;;
46675;SDS011;32412;51.478;5.694;2023-05-10T01:44:20;117.03;;;31.27;;
46675;SDS011;32412;51.478;5.694;2023-05-10T01:50:09;131.00;;;34.93;;
46675;SDS011;32412;51.478;5.694;2023-05-10T01:52:33;139.83;;;37.70;;
46675;SDS011;32412;51.478;5.694;2023-05-10T01:55:07;132.57;;;38.50;;
46675;SDS011;32412;51.478;5.694;2023-05-10T01:57:36;137.00;;;38.80;;
46675;SDS011;32412;51.478;5.694;2023-05-10T02:00:04;135.82;;;38.72;;
46675;SDS011;32412;51.478;5.694;2023-05-10T02:02:33;127.22;;;36.05;;
46675;SDS011;32412;51.478;5.694;2023-05-10T02:05:04;139.57;;;39.17;;
46675;SDS011;32412;51.478;5.694;2023-05-10T02:07:32;136.82;;;36.97;;
46675;SDS011;32412;51.478;5.694;2023-05-10T02:10:00;134.88;;;37.10;;
46675;SDS011;32412;51.478;5.694;2023-05-10T02:12:31;131.18;;;37.78;;
46675;SDS011;32412;51.478;5.694;2023-05-10T02:15:03;125.45;;;36.55;;
46675;SDS011;32412;51.478;5.694;2023-05-10T02:17:31;134.98;;;35.65;;
46675;SDS011;32412;51.478;5.694;2023-05-10T02:19:58;128.23;;;35.80;;
46675;SDS011;32412;51.478;5.694;2023-05-10T02:22:29;131.63;;;36.17;;
46675;SDS011;32412;51.478;5.694;2023-05-10T02:24:57;131.20;;;38.10;;
46675;SDS011;32412;51.478;5.694;2023-05-10T02:27:25;132.07;;;37.55;;
46675;SDS011;32412;51.478;5.694;2023-05-10T02:29:52;133.45;;;39.75;;
46675;SDS011;32412;51.478;5.694;2023-05-10T02:32:19;136.20;;;38.75;;
46675;SDS011;32412;51.478;5.694;2023-05-10T02:34:47;139.25;;;38.13;;
46675;SDS011;32412;51.478;5.694;2023-05-10T02:37:19;126.00;;;37.47;;
46675;SDS011;32412;51.478;5.694;2023-05-10T02:39:46;131.65;;;39.35;;
46675;SDS011;32412;51.478;5.694;2023-05-10T02:42:22;129.23;;;41.88;;
46675;SDS011;32412;51.478;5.694;2023-05-10T02:44:52;124.13;;;39.42;;
46675;SDS011;32412;51.478;5.694;2023-05-10T02:47:21;124.05;;;40.97;;
46675;SDS011;32412;51.478;5.694;2023-05-10T02:49:47;126.85;;;41.90;;
46675;SDS011;32412;51.478;5.694;2023-05-10T02:52:14;120.63;;;42.30;;
46675;SDS011;32412;51.478;5.694;2023-05-10T02:54:45;117.90;;;41.47;;
46675;SDS011;32412;51.478;5.694;2023-05-10T02:57:15;120.15;;;39.67;;
46675;SDS011;32412;51.478;5.694;2023-05-10T02:59:44;127.43;;;42.00;;
46675;SDS011;32412;51.478;5.694;2023-05-10T03:02:12;126.25;;;41.20;;
46675;SDS011;32412;51.478;5.694;2023-05-10T03:04:38;119.50;;;39.88;;
46675;SDS011;32412;51.478;5.694;2023-05-10T03:07:04;120.35;;;41.05;;
46675;SDS011;32412;51.478;5.694;2023-05-10T03:09:30;119.18;;;40.90;;
46675;SDS011;32412;51.478;5.694;2023-05-10T03:12:18;110.50;;;40.45;;
46675;SDS011;32412;51.478;5.694;2023-05-10T03:15:03;127.57;;;42.08;;
46675;SDS011;32412;51.478;5.694;2023-05-10T03:20:47;111.60;;;41.53;;
46675;SDS011;32412;51.478;5.694;2023-05-10T03:23:21;121.70;;;42.20;;
46675;SDS011;32412;51.478;5.694;2023-05-10T03:25:49;118.72;;;42.42;;
46675;SDS011;32412;51.478;5.694;2023-05-10T03:28:16;117.97;;;40.65;;
46675;SDS011;32412;51.478;5.694;2023-05-10T03:30:43;107.68;;;40.20;;
46675;SDS011;32412;51.478;5.694;2023-05-10T03:33:10;104.97;;;39.13;;
46675;SDS011;32412;51.478;5.694;2023-05-10T03:35:35;113.35;;;41.42;;
46675;SDS011;32412;51.478;5.694;2023-05-10T03:38:01;115.05;;;40.55;;
46675;SDS011;32412;51.478;5.694;2023-05-10T03:40:27;105.53;;;39.70;;
46675;SDS011;32412;51.478;5.694;2023-05-10T03:42:56;107.60;;;40.33;;
46675;SDS011;32412;51.478;5.694;2023-05-10T03:45:22;99.95;;;38.20;;
46675;SDS011;32412;51.478;5.694;2023-05-10T03:47:48;102.00;;;41.28;;
46675;SDS011;32412;51.478;5.694;2023-05-10T03:50:13;116.53;;;41.03;;
46675;SDS011;32412;51.478;5.694;2023-05-10T03:52:39;100.78;;;39.05;;
46675;SDS011;32412;51.478;5.694;2023-05-10T03:55:05;102.35;;;39.38;;
46675;SDS011;32412;51.478;5.694;2023-05-10T03:57:34;100.70;;;38.80;;
46675;SDS011;32412;51.478;5.694;2023-05-10T04:00:01;99.30;;;40.03;;
46675;SDS011;32412;51.478;5.694;2023-05-10T04:02:30;90.68;;;36.67;;
46675;SDS011;32412;51.478;5.694;2023-05-10T04:04:56;96.65;;;38.85;;
46675;SDS011;32412;51.478;5.694;2023-05-10T04:07:21;93.43;;;38.45;;
46675;SDS011;32412;51.478;5.694;2023-05-10T04:09:47;100.03;;;38.22;;
46675;SDS011;32412;51.478;5.694;2023-05-10T04:12:13;95.60;;;36.90;;
46675;SDS011;32412;51.478;5.694;2023-05-10T04:14:39;97.00;;;38.03;;
46675;SDS011;32412;51.478;5.694;2023-05-10T04:17:05;92.35;;;36.83;;
46675;SDS011;32412;51.478;5.694;2023-05-10T04:19:31;98.97;;;37.25;;
46675;SDS011;32412;51.478;5.694;2023-05-10T04:21:57;101.43;;;36.03;;
46675;SDS011;32412;51.478;5.694;2023-05-10T04:24:24;91.75;;;36.85;;
46675;SDS011;32412;51.478;5.694;2023-05-10T04:26:50;95.82;;;38.25;;
46675;SDS011;32412;51.478;5.694;2023-05-10T04:29:16;96.45;;;36.92;;
46675;SDS011;32412;51.478;5.694;2023-05-10T04:31:42;94.50;;;36.20;;
46675;SDS011;32412;51.478;5.694;2023-05-10T04:34:07;94.68;;;36.35;;
46675;SDS011;32412;51.478;5.694;2023-05-10T04:36:33;93.45;;;36.22;;
46675;SDS011;32412;51.478;5.694;2023-05-10T04:39:00;95.97;;;35.40;;
46675;SDS011;32412;51.478;5.694;2023-05-10T04:41:28;92.75;;;36.10;;
46675;SDS011;32412;51.478;5.694;2023-05-10T04:43:54;97.20;;;37.60;;
46675;SDS011;32412;51.478;5.694;2023-05-10T04:46:20;109.05;;;37.90;;
46675;SDS011;32412;51.478;5.694;2023-05-10T04:48:45;114.32;;;39.47;;
46675;SDS011;32412;51.478;5.694;2023-05-10T04:51:11;115.00;;;38.25;;
46675;SDS011;32412;51.478;5.694;2023-05-10T04:53:37;116.90;;;40.55;;
46675;SDS011;32412;51.478;5.694;2023-05-10T04:56:03;113.38;;;39.50;;
46675;SDS011;32412;51.478;5.694;2023-05-10T04:58:29;135.82;;;42.78;;
46675;SDS011;32412;51.478;5.694;2023-05-10T05:00:54;132.70;;;42.70;;
46675;SDS011;32412;51.478;5.694;2023-05-10T05:03:20;133.10;;;44.65;;
46675;SDS011;32412;51.478;5.694;2023-05-10T05:05:47;143.32;;;46.00;;
46675;SDS011;32412;51.478;5.694;2023-05-10T05:08:12;149.57;;;46.70;;
46675;SDS011;32412;51.478;5.694;2023-05-10T05:10:38;147.55;;;47.20;;
46675;SDS011;32412;51.478;5.694;2023-05-10T05:13:04;138.20;;;45.25;;
46675;SDS011;32412;51.478;5.694;2023-05-10T05:15:30;145.57;;;46.67;;
46675;SDS011;32412;51.478;5.694;2023-05-10T05:17:56;137.18;;;45.97;;
46675;SDS011;32412;51.478;5.694;2023-05-10T05:20:21;134.45;;;45.67;;
46675;SDS011;32412;51.478;5.694;2023-05-10T05:22:51;112.75;;;42.03;;
46675;SDS011;32412;51.478;5.694;2023-05-10T05:25:16;105.97;;;38.15;;
46675;SDS011;32412;51.478;5.694;2023-05-10T05:27:42;97.38;;;37.35;;
46675;SDS011;32412;51.478;5.694;2023-05-10T05:30:08;89.40;;;35.33;;
46675;SDS011;32412;51.478;5.694;2023-05-10T05:32:34;93.72;;;37.28;;
46675;SDS011;32412;51.478;5.694;2023-05-10T05:35:00;93.18;;;35.85;;
46675;SDS011;32412;51.478;5.694;2023-05-10T05:37:25;84.22;;;33.17;;
46675;SDS011;32412;51.478;5.694;2023-05-10T05:39:51;85.07;;;33.78;;
46675;SDS011;32412;51.478;5.694;2023-05-10T05:42:17;77.63;;;34.13;;
46675;SDS011;32412;51.478;5.694;2023-05-10T05:44:43;74.18;;;32.00;;
46675;SDS011;32412;51.478;5.694;2023-05-10T05:47:09;77.63;;;31.50;;
46675;SDS011;32412;51.478;5.694;2023-05-10T05:49:35;71.28;;;30.58;;
46675;SDS011;32412;51.478;5.694;2023-05-10T05:52:02;71.28;;;30.90;;
46675;SDS011;32412;51.478;5.694;2023-05-10T05:54:28;65.10;;;30.17;;
46675;SDS011;32412;51.478;5.694;2023-05-10T05:56:55;70.80;;;30.17;;
46675;SDS011;32412;51.478;5.694;2023-05-10T05:59:21;68.22;;;30.27;;
46675;SDS011;32412;51.478;5.694;2023-05-10T06:01:47;65.75;;;30.08;;
46675;SDS011;32412;51.478;5.694;2023-05-10T06:04:13;63.55;;;30.20;;
46675;SDS011;32412;51.478;5.694;2023-05-10T06:06:39;64.97;;;30.75;;
46675;SDS011;32412;51.478;5.694;2023-05-10T06:09:05;55.83;;;27.33;;
46675;SDS011;32412;51.478;5.694;2023-05-10T06:11:30;64.20;;;29.95;;
46675;SDS011;32412;51.478;5.694;2023-05-10T06:13:59;60.50;;;28.73;;
46675;SDS011;32412;51.478;5.694;2023-05-10T06:16:29;59.75;;;29.60;;
46675;SDS011;32412;51.478;5.694;2023-05-10T06:18:55;59.38;;;28.55;;
46675;SDS011;32412;51.478;5.694;2023-05-10T06:21:22;56.22;;;27.05;;
46675;SDS011;32412;51.478;5.694;2023-05-10T06:23:47;57.40;;;26.73;;
46675;SDS011;32412;51.478;5.694;2023-05-10T06:26:13;52.35;;;25.60;;
46675;SDS011;32412;51.478;5.694;2023-05-10T06:28:39;51.53;;;25.17;;
46675;SDS011;32412;51.478;5.694;2023-05-10T06:31:05;49.60;;;24.75;;
46675;SDS011;32412;51.478;5.694;2023-05-10T06:33:31;56.65;;;26.92;;
46675;SDS011;32412;51.478;5.694;2023-05-10T06:35:58;53.83;;;25.27;;
46675;SDS011;32412;51.478;5.694;2023-05-10T06:38:23;45.92;;;25.25;;
46675;SDS011;32412;51.478;5.694;2023-05-10T06:40:49;48.25;;;24.45;;
46675;SDS011;32412;51.478;5.694;2023-05-10T06:43:15;44.47;;;23.83;;
46675;SDS011;32412;51.478;5.694;2023-05-10T06:45:41;42.35;;;23.60;;
46675;SDS011;32412;51.478;5.694;2023-05-10T06:48:06;53.90;;;24.55;;
46675;SDS011;32412;51.478;5.694;2023-05-10T06:50:32;48.47;;;24.10;;
46675;SDS011;32412;51.478;5.694;2023-05-10T06:52:58;40.63;;;22.38;;
46675;SDS011;32412;51.478;5.694;2023-05-10T06:55:25;43.17;;;23.08;;
46675;SDS011;32412;51.478;5.694;2023-05-10T06:57:51;43.83;;;23.58;;
46675;SDS011;32412;51.478;5.694;2023-05-10T07:00:17;41.35;;;22.58;;
46675;SDS011;32412;51.478;5.694;2023-05-10T07:02:43;47.40;;;22.73;;
46675;SDS011;32412;51.478;5.694;2023-05-10T07:05:09;44.10;;;22.70;;
46675;SDS011;32412;51.478;5.694;2023-05-10T07:07:35;44.47;;;24.02;;
46675;SDS011;32412;51.478;5.694;2023-05-10T07:10:01;43.08;;;23.15;;
46675;SDS011;32412;51.478;5.694;2023-05-10T07:12:27;41.35;;;22.60;;
46675;SDS011;32412;51.478;5.694;2023-05-10T07:14:53;40.97;;;22.75;;
46675;SDS011;32412;51.478;5.694;2023-05-10T07:17:18;43.13;;;23.08;;
46675;SDS011;32412;51.478;5.694;2023-05-10T07:19:44;40.30;;;22.15;;
46675;SDS011;32412;51.478;5.694;2023-05-10T07:22:10;43.17;;;24.08;;
46675;SDS011;32412;51.478;5.694;2023-05-10T07:24:35;44.67;;;24.58;;
46675;SDS011;32412;51.478;5.694;2023-05-10T07:27:01;41.60;;;24.95;;
46675;SDS011;32412;51.478;5.694;2023-05-10T07:29:27;45.33;;;24.67;;
46675;SDS011;32412;51.478;5.694;2023-05-10T07:31:53;43.53;;;24.08;;
46675;SDS011;32412;51.478;5.694;2023-05-10T07:34:19;43.28;;;24.95;;
46675;SDS011;32412;51.478;5.694;2023-05-10T07:36:44;44.88;;;24.80;;
46675;SDS011;32412;51.478;5.694;2023-05-10T07:39:10;45.70;;;25.58;;
46675;SDS011;32412;51.478;5.694;2023-05-10T07:41:36;44.20;;;26.67;;
46675;SDS011;32412;51.478;5.694;2023-05-10T07:44:03;40.08;;;24.55;;
46675;SDS011;32412;51.478;5.694;2023-05-10T07:46:29;43.38;;;24.17;;
46675;SDS011;32412;51.478;5.694;2023-05-10T07:48:55;44.00;;;25.65;;
46675;SDS011;32412;51.478;5.694;2023-05-10T07:51:21;47.83;;;25.17;;
46675;SDS011;32412;51.478;5.694;2023-05-10T07:53:47;39.30;;;23.65;;
46675;SDS011;32412;51.478;5.694;2023-05-10T07:56:26;41.78;;;24.23;;
46675;SDS011;32412;51.478;5.694;2023-05-10T07:58:54;42.58;;;24.98;;
46675;SDS011;32412;51.478;5.694;2023-05-10T08:01:20;43.28;;;24.50;;
46675;SDS011;32412;51.478;5.694;2023-05-10T08:03:47;41.63;;;24.15;;
46675;SDS011;32412;51.478;5.694;2023-05-10T08:06:13;44.13;;;24.55;;
46675;SDS011;32412;51.478;5.694;2023-05-10T08:08:42;49.47;;;25.95;;
46675;SDS011;32412;51.478;5.694;2023-05-10T08:11:08;47.75;;;25.38;;
46675;SDS011;32412;51.478;5.694;2023-05-10T08:13:34;45.55;;;24.73;;
46675;SDS011;32412;51.478;5.694;2023-05-10T08:15:59;41.67;;;23.52;;
46675;SDS011;32412;51.478;5.694;2023-05-10T08:18:25;42.83;;;22.75;;
46675;SDS011;32412;51.478;5.694;2023-05-10T08:20:51;39.22;;;22.27;;
46675;SDS011;32412;51.478;5.694;2023-05-10T08:23:16;34.33;;;21.73;;
46675;SDS011;32412;51.478;5.694;2023-05-10T08:25:42;38.22;;;21.65;;
46675;SDS011;32412;51.478;5.694;2023-05-10T08:28:08;38.85;;;21.83;;
46675;SDS011;32412;51.478;5.694;2023-05-10T08:30:33;30.77;;;18.48;;
46675;SDS011;32412;51.478;5.694;2023-05-10T08:32:59;31.38;;;18.20;;
46675;SDS011;32412;51.478;5.694;2023-05-10T08:35:28;28.05;;;17.67;;
46675;SDS011;32412;51.478;5.694;2023-05-10T08:37:53;29.63;;;17.50;;
46675;SDS011;32412;51.478;5.694;2023-05-10T08:40:19;27.17;;;16.63;;
46675;SDS011;32412;51.478;5.694;2023-05-10T08:43:06;24.73;;;15.10;;
46675;SDS011;32412;51.478;5.694;2023-05-10T08:45:36;22.23;;;12.95;;
46675;SDS011;32412;51.478;5.694;2023-05-10T08:48:05;23.40;;;13.65;;
46675;SDS011;32412;51.478;5.694;2023-05-10T08:50:32;17.63;;;12.20;;
46675;SDS011;32412;51.478;5.694;2023-05-10T08:53:00;22.13;;;12.63;;
46675;SDS011;32412;51.478;5.694;2023-05-10T08:55:34;15.35;;;10.63;;
46675;SDS011;32412;51.478;5.694;2023-05-10T08:58:03;16.80;;;10.20;;
46675;SDS011;32412;51.478;5.694;2023-05-10T09:00:29;17.50;;;9.80;;
46675;SDS011;32412;51.478;5.694;2023-05-10T09:02:55;17.80;;;9.63;;
46675;SDS011;32412;51.478;5.694;2023-05-10T09:05:22;13.82;;;8.70;;
46675;SDS011;32412;51.478;5.694;2023-05-10T09:07:48;10.93;;;7.95;;
46675;SDS011;32412;51.478;5.694;2023-05-10T09:10:14;12.70;;;7.90;;
46675;SDS011;32412;51.478;5.694;2023-05-10T09:12:40;11.75;;;7.38;;
46675;SDS011;32412;51.478;5.694;2023-05-10T09:15:07;10.70;;;6.63;;
46675;SDS011;32412;51.478;5.694;2023-05-10T09:17:34;12.05;;;7.40;;
46675;SDS011;32412;51.478;5.694;2023-05-10T09:20:01;11.18;;;7.25;;
46675;SDS011;32412;51.478;5.694;2023-05-10T09:22:29;12.20;;;7.72;;
46675;SDS011;32412;51.478;5.694;2023-05-10T09:25:08;10.50;;;7.03;;
46675;SDS011;32412;51.478;5.694;2023-05-10T09:27:39;12.77;;;7.32;;
46675;SDS011;32412;51.478;5.694;2023-05-10T09:30:07;13.45;;;7.05;;
46675;SDS011;32412;51.478;5.694;2023-05-10T09:32:41;12.10;;;7.40;;
46675;SDS011;32412;51.478;5.694;2023-05-10T09:37:36;12.15;;;7.55;;
46675;SDS011;32412;51.478;5.694;2023-05-10T09:40:06;10.20;;;7.15;;
46675;SDS011;32412;51.478;5.694;2023-05-10T09:42:33;11.15;;;7.20;;
46675;SDS011;32412;51.478;5.694;2023-05-10T09:45:01;16.13;;;7.38;;
46675;SDS011;32412;51.478;5.694;2023-05-10T09:47:27;11.43;;;7.10;;
46675;SDS011;32412;51.478;5.694;2023-05-10T09:49:53;9.90;;;6.38;;
46675;SDS011;32412;51.478;5.694;2023-05-10T09:52:22;9.10;;;6.18;;
46675;SDS011;32412;51.478;5.694;2023-05-10T09:54:54;8.85;;;7.10;;
46675;SDS011;32412;51.478;5.694;2023-05-10T09:57:21;8.35;;;6.50;;
46675;SDS011;32412;51.478;5.694;2023-05-10T09:59:47;10.75;;;6.32;;
46675;SDS011;32412;51.478;5.694;2023-05-10T10:02:14;8.00;;;5.05;;
46675;SDS011;32412;51.478;5.694;2023-05-10T10:04:40;6.28;;;4.28;;
46675;SDS011;32412;51.478;5.694;2023-05-10T10:07:06;7.30;;;4.15;;
46675;SDS011;32412;51.478;5.694;2023-05-10T10:09:33;7.53;;;4.57;;
46675;SDS011;32412;51.478;5.694;2023-05-10T10:12:02;7.05;;;4.63;;
46675;SDS011;32412;51.478;5.694;2023-05-10T10:14:29;6.43;;;4.30;;
46675;SDS011;32412;51.478;5.694;2023-05-10T10:16:54;8.90;;;5.18;;
46675;SDS011;32412;51.478;5.694;2023-05-10T10:19:21;6.97;;;5.47;;
46675;SDS011;32412;51.478;5.694;2023-05-10T10:21:47;10.73;;;6.68;;
46675;SDS011;32412;51.478;5.694;2023-05-10T10:24:14;8.15;;;6.82;;
46675;SDS011;32412;51.478;5.694;2023-05-10T10:26:40;10.32;;;7.20;;
46675;SDS011;32412;51.478;5.694;2023-05-10T10:31:39;11.00;;;7.95;;
46675;SDS011;32412;51.478;5.694;2023-05-10T10:34:10;10.07;;;7.80;;
46675;SDS011;32412;51.478;5.694;2023-05-10T10:36:46;10.40;;;7.25;;
46675;SDS011;32412;51.478;5.694;2023-05-10T10:39:12;10.88;;;8.00;;
46675;SDS011;32412;51.478;5.694;2023-05-10T10:41:39;9.80;;;8.80;;
46675;SDS011;32412;51.478;5.694;2023-05-10T10:46:59;8.68;;;7.25;;
46675;SDS011;32412;51.478;5.694;2023-05-10T10:49:25;10.52;;;8.18;;
46675;SDS011;32412;51.478;5.694;2023-05-10T10:58:12;8.98;;;7.80;;
46675;SDS011;32412;51.478;5.694;2023-05-10T11:03:08;10.60;;;7.75;;
46675;SDS011;32412;51.478;5.694;2023-05-10T11:05:40;10.20;;;7.45;;
46675;SDS011;32412;51.478;5.694;2023-05-10T11:08:26;10.18;;;7.45;;
46675;SDS011;32412;51.478;5.694;2023-05-10T11:13:34;8.93;;;7.32;;
46675;SDS011;32412;51.478;5.694;2023-05-10T11:18:59;8.25;;;6.28;;
46675;SDS011;32412;51.478;5.694;2023-05-10T11:21:32;8.00;;;6.43;;
46675;SDS011;32412;51.478;5.694;2023-05-10T11:23:59;7.32;;;6.38;;
46675;SDS011;32412;51.478;5.694;2023-05-10T11:26:31;7.55;;;5.82;;
46675;SDS011;32412;51.478;5.694;2023-05-10T11:28:58;10.25;;;6.25;;
46675;SDS011;32412;51.478;5.694;2023-05-10T11:31:26;12.07;;;7.53;;
46675;SDS011;32412;51.478;5.694;2023-05-10T11:33:53;13.32;;;10.63;;
46675;SDS011;32412;51.478;5.694;2023-05-10T11:36:21;15.93;;;11.50;;
46675;SDS011;32412;51.478;5.694;2023-05-10T11:38:51;17.00;;;13.38;;
46675;SDS011;32412;51.478;5.694;2023-05-10T11:41:18;16.42;;;13.48;;
46675;SDS011;32412;51.478;5.694;2023-05-10T11:43:46;16.75;;;13.00;;
46675;SDS011;32412;51.478;5.694;2023-05-10T11:46:14;13.52;;;10.77;;
46675;SDS011;32412;51.478;5.694;2023-05-10T11:48:41;14.68;;;11.77;;
46675;SDS011;32412;51.478;5.694;2023-05-10T11:51:08;17.40;;;12.40;;
46675;SDS011;32412;51.478;5.694;2023-05-10T11:53:35;17.80;;;12.63;;
46675;SDS011;32412;51.478;5.694;2023-05-10T11:56:10;16.70;;;12.52;;
46675;SDS011;32412;51.478;5.694;2023-05-10T11:58:37;15.20;;;11.85;;
46675;SDS011;32412;51.478;5.694;2023-05-10T12:01:04;16.63;;;12.18;;
46675;SDS011;32412;51.478;5.694;2023-05-10T12:03:31;14.50;;;11.10;;
46675;SDS011;32412;51.478;5.694;2023-05-10T12:05:58;14.27;;;11.02;;
46675;SDS011;32412;51.478;5.694;2023-05-10T12:08:25;12.63;;;10.15;;
46675;SDS011;32412;51.478;5.694;2023-05-10T12:10:52;12.40;;;9.80;;
46675;SDS011;32412;51.478;5.694;2023-05-10T12:13:28;14.48;;;10.57;;
46675;SDS011;32412;51.478;5.694;2023-05-10T12:15:54;14.02;;;10.90;;
46675;SDS011;32412;51.478;5.694;2023-05-10T12:18:23;13.77;;;11.32;;
46675;SDS011;32412;51.478;5.694;2023-05-10T12:20:52;17.00;;;12.15;;
46675;SDS011;32412;51.478;5.694;2023-05-10T12:23:21;15.35;;;12.30;;
46675;SDS011;32412;51.478;5.694;2023-05-10T12:25:46;15.60;;;12.30;;
46675;SDS011;32412;51.478;5.694;2023-05-10T12:28:12;14.45;;;10.45;;
46675;SDS011;32412;51.478;5.694;2023-05-10T12:30:38;18.33;;;13.00;;
46675;SDS011;32412;51.478;5.694;2023-05-10T12:33:08;16.70;;;12.32;;
46675;SDS011;32412;51.478;5.694;2023-05-10T12:38:23;16.63;;;11.20;;
46675;SDS011;32412;51.478;5.694;2023-05-10T12:40:57;18.30;;;11.10;;
46675;SDS011;32412;51.478;5.694;2023-05-10T12:43:27;11.77;;;9.30;;
46675;SDS011;32412;51.478;5.694;2023-05-10T12:45:53;12.60;;;10.25;;
46675;SDS011;32412;51.478;5.694;2023-05-10T12:48:19;13.43;;;10.60;;
46675;SDS011;32412;51.478;5.694;2023-05-10T12:50:45;15.65;;;11.20;;
46675;SDS011;32412;51.478;5.694;2023-05-10T12:53:13;16.63;;;11.10;;
46675;SDS011;32412;51.478;5.694;2023-05-10T12:55:40;15.27;;;11.18;;
46675;SDS011;32412;51.478;5.694;2023-05-10T12:58:09;17.05;;;11.07;;
46675;SDS011;32412;51.478;5.694;2023-05-10T13:00:34;16.73;;;11.05;;
46675;SDS011;32412;51.478;5.694;2023-05-10T13:03:02;14.52;;;10.95;;
46675;SDS011;32412;51.478;5.694;2023-05-10T13:05:31;16.83;;;11.73;;
46675;SDS011;32412;51.478;5.694;2023-05-10T13:07:57;16.98;;;11.63;;
46675;SDS011;32412;51.478;5.694;2023-05-10T13:10:23;15.02;;;11.75;;
46675;SDS011;32412;51.478;5.694;2023-05-10T13:12:49;20.60;;;14.93;;
46675;SDS011;32412;51.478;5.694;2023-05-10T13:15:15;23.75;;;15.32;;
46675;SDS011;32412;51.478;5.694;2023-05-10T13:17:41;18.83;;;13.73;;
46675;SDS011;32412;51.478;5.694;2023-05-10T13:20:08;22.27;;;15.40;;
46675;SDS011;32412;51.478;5.694;2023-05-10T13:22:36;20.45;;;14.68;;
46675;SDS011;32412;51.478;5.694;2023-05-10T13:25:02;18.85;;;14.20;;
46675;SDS011;32412;51.478;5.694;2023-05-10T13:27:28;20.60;;;13.30;;
46675;SDS011;32412;51.478;5.694;2023-05-10T13:29:53;18.63;;;12.93;;
46675;SDS011;32412;51.478;5.694;2023-05-10T13:32:20;17.83;;;11.85;;
46675;SDS011;32412;51.478;5.694;2023-05-10T13:34:46;12.80;;;10.07;;
46675;SDS011;32412;51.478;5.694;2023-05-10T13:37:11;11.73;;;9.95;;
46675;SDS011;32412;51.478;5.694;2023-05-10T13:39:37;9.95;;;8.95;;
46675;SDS011;32412;51.478;5.694;2023-05-10T13:42:03;10.50;;;8.77;;
46675;SDS011;32412;51.478;5.694;2023-05-10T13:44:29;9.88;;;8.23;;
46675;SDS011;32412;51.478;5.694;2023-05-10T13:46:55;8.23;;;7.43;;
46675;SDS011;32412;51.478;5.694;2023-05-10T13:49:21;8.30;;;6.65;;
46675;SDS011;32412;51.478;5.694;2023-05-10T13:51:50;9.52;;;7.40;;
46675;SDS011;32412;51.478;5.694;2023-05-10T13:54:16;8.73;;;6.65;;
46675;SDS011;32412;51.478;5.694;2023-05-10T13:56:44;8.75;;;6.78;;
46675;SDS011;32412;51.478;5.694;2023-05-10T13:59:12;9.88;;;8.88;;
46675;SDS011;32412;51.478;5.694;2023-05-10T14:01:38;12.18;;;9.13;;
46675;SDS011;32412;51.478;5.694;2023-05-10T14:04:06;13.07;;;10.63;;
46675;SDS011;32412;51.478;5.694;2023-05-10T14:06:35;14.18;;;11.00;;
46675;SDS011;32412;51.478;5.694;2023-05-10T14:09:01;13.90;;;11.20;;
46675;SDS011;32412;51.478;5.694;2023-05-10T14:11:27;13.65;;;11.73;;
46675;SDS011;32412;51.478;5.694;2023-05-10T14:13:53;13.20;;;11.25;;
46675;SDS011;32412;51.478;5.694;2023-05-10T14:16:19;13.60;;;11.43;;
46675;SDS011;32412;51.478;5.694;2023-05-10T14:18:45;14.18;;;11.60;;
46675;SDS011;32412;51.478;5.694;2023-05-10T14:21:13;16.45;;;12.60;;
46675;SDS011;32412;51.478;5.694;2023-05-10T14:23:39;14.48;;;12.68;;
46675;SDS011;32412;51.478;5.694;2023-05-10T14:26:07;16.48;;;12.88;;
46675;SDS011;32412;51.478;5.694;2023-05-10T14:28:33;21.48;;;14.77;;
46675;SDS011;32412;51.478;5.694;2023-05-10T14:30:59;21.35;;;15.23;;
46675;SDS011;32412;51.478;5.694;2023-05-10T14:33:27;19.52;;;15.45;;
46675;SDS011;32412;51.478;5.694;2023-05-10T14:35:53;23.02;;;15.98;;
46675;SDS011;32412;51.478;5.694;2023-05-10T14:38:21;21.48;;;16.25;;
46675;SDS011;32412;51.478;5.694;2023-05-10T14:40:47;22.08;;;15.30;;
46675;SDS011;32412;51.478;5.694;2023-05-10T14:43:12;22.33;;;15.05;;
46675;SDS011;32412;51.478;5.694;2023-05-10T14:45:38;25.98;;;15.98;;
46675;SDS011;32412;51.478;5.694;2023-05-10T14:48:04;25.73;;;15.88;;
46675;SDS011;32412;51.478;5.694;2023-05-10T14:50:36;26.52;;;15.88;;
46675;SDS011;32412;51.478;5.694;2023-05-10T14:53:04;24.50;;;15.85;;
46675;SDS011;32412;51.478;5.694;2023-05-10T14:55:30;28.52;;;18.15;;
46675;SDS011;32412;51.478;5.694;2023-05-10T14:57:56;29.70;;;18.75;;
46675;SDS011;32412;51.478;5.694;2023-05-10T15:00:22;31.90;;;19.73;;
46675;SDS011;32412;51.478;5.694;2023-05-10T15:02:48;32.58;;;18.88;;
46675;SDS011;32412;51.478;5.694;2023-05-10T15:05:13;37.72;;;19.95;;
46675;SDS011;32412;51.478;5.694;2023-05-10T15:07:39;32.30;;;19.13;;
46675;SDS011;32412;51.478;5.694;2023-05-10T15:10:05;32.63;;;19.20;;
46675;SDS011;32412;51.478;5.694;2023-05-10T15:12:31;31.23;;;19.20;;